createdAt,value
2023-03-26T00:02:29.792Z,95854.88
2023-03-26T00:04:58.301Z,95850.66
2023-03-26T00:07:28.009Z,95836.72
2023-03-26T00:09:58.099Z,95838.25
2023-03-26T00:12:26.774Z,95835.44
2023-03-26T00:14:55.112Z,95841.16
2023-03-26T00:17:23.507Z,95837.75
2023-03-26T00:19:53.664Z,95840.03
2023-03-26T00:22:23.643Z,95823.84
2023-03-26T00:24:52.094Z,95825.91
2023-03-26T00:27:21.728Z,95829.97
2023-03-26T00:29:50.098Z,95829.97
2023-03-26T00:32:18.413Z,95830.97
2023-03-26T00:34:46.706Z,95831.94
2023-03-26T00:37:15.199Z,95829.63
2023-03-26T00:39:44.636Z,95825.22
2023-03-26T00:42:14.941Z,95834.19
2023-03-26T00:44:44.621Z,95834.13
2023-03-26T00:47:13.198Z,95828.97
2023-03-26T00:49:41.497Z,95829.94
2023-03-26T00:52:10.042Z,95818.19
2023-03-26T00:54:38.365Z,95829.25
2023-03-26T00:57:06.892Z,95820.13
2023-03-26T00:59:35.786Z,95824.53
2023-03-26T01:02:05.514Z,95820.28
2023-03-26T01:04:35.424Z,95820.53
2023-03-26T01:07:06.604Z,95819.69
2023-03-26T01:09:42.928Z,95822.88
2023-03-26T01:12:15.622Z,95813.38
2023-03-26T01:14:44.846Z,95813.78
2023-03-26T01:17:14.643Z,95805.16
2023-03-26T01:19:48.568Z,95811.22
2023-03-26T01:22:19.427Z,95807.16
2023-03-26T01:24:53.469Z,95807.88
2023-03-26T01:27:27.961Z,95815.41
2023-03-26T01:29:57.333Z,95819.28
2023-03-26T01:32:48.596Z,95820.34
2023-03-26T01:35:24.138Z,95816.84
2023-03-26T01:37:59.740Z,95819.63
2023-03-26T01:40:31.790Z,95815.28
2023-03-26T01:43:06.843Z,95801.19
2023-03-26T01:45:37.106Z,95801.66
2023-03-26T01:48:06.339Z,95800.06
2023-03-26T01:50:34.750Z,95796.75
2023-03-26T01:53:03.289Z,95801.47
2023-03-26T01:55:37.001Z,95797.91
2023-03-26T01:58:08.824Z,95797.50
2023-03-26T02:00:42.126Z,95785.78
2023-03-26T02:03:18.833Z,95783.75
2023-03-26T02:05:52.295Z,95786.47
2023-03-26T02:08:24.767Z,95793.63
2023-03-26T02:10:57.884Z,95784.13
2023-03-26T02:13:26.755Z,95789.44
2023-03-26T02:16:00.277Z,95791.31
2023-03-26T02:18:36.269Z,95786.69
2023-03-26T02:21:06.772Z,95783.38
2023-03-26T02:23:36.257Z,95780.66
2023-03-26T02:26:09.732Z,95777.78
2023-03-26T02:28:38.662Z,95768.56
2023-03-26T02:31:11.090Z,95767.00
2023-03-26T02:33:39.551Z,95773.41
2023-03-26T02:36:10.794Z,95771.22
2023-03-26T02:38:39.186Z,95772.09
2023-03-26T02:41:08.905Z,95761.72
2023-03-26T02:43:37.200Z,95759.50
2023-03-26T02:46:06.059Z,95749.78
2023-03-26T02:48:35.250Z,95754.69
2023-03-26T02:51:03.686Z,95751.97
2023-03-26T02:53:31.964Z,95744.47
2023-03-26T02:56:01.325Z,95747.41
2023-03-26T02:58:31.086Z,95752.56
2023-03-26T03:00:59.365Z,95750.28
2023-03-26T03:03:28.606Z,95744.81
2023-03-26T03:05:58.056Z,95738.63
2023-03-26T03:08:29.277Z,95745.53
2023-03-26T03:10:59.101Z,95741.63
2023-03-26T03:13:27.562Z,95736.13
2023-03-26T03:15:57.686Z,95731.84
2023-03-26T03:18:26.201Z,95730.59
2023-03-26T03:20:54.893Z,95726.31
2023-03-26T03:23:23.198Z,95720.41
2023-03-26T03:25:52.721Z,95712.50
2023-03-26T03:28:21.558Z,95714.00
2023-03-26T03:30:53.155Z,95709.72
2023-03-26T03:33:22.863Z,95701.81
2023-03-26T03:35:51.991Z,95693.91
2023-03-26T03:38:20.632Z,95689.34
2023-03-26T03:40:48.970Z,95688.75
2023-03-26T03:43:17.234Z,95684.09
2023-03-26T03:45:45.589Z,95673.03
2023-03-26T03:48:13.974Z,95680.16
2023-03-26T03:50:43.681Z,95675.69
2023-03-26T03:53:16.233Z,95682.59
2023-03-26T03:55:52.856Z,95683.97
2023-03-26T03:58:24.982Z,95684.50
2023-03-26T04:00:53.859Z,95686.31
2023-03-26T04:03:33.512Z,95679.44
2023-03-26T04:06:06.943Z,95681.88
2023-03-26T04:08:35.634Z,95672.53
2023-03-26T04:11:04.096Z,95678.91
2023-03-26T04:13:32.436Z,95675.31
2023-03-26T04:16:01.089Z,95672.41
2023-03-26T04:18:30.282Z,95681.75
2023-03-26T04:21:02.385Z,95680.38
2023-03-26T04:23:32.657Z,95666.84
2023-03-26T04:26:04.515Z,95667.13
2023-03-26T04:28:35.586Z,95656.19
2023-03-26T04:31:04.807Z,95653.16
2023-03-26T04:33:35.289Z,95649.69
2023-03-26T04:36:03.764Z,95654.41
2023-03-26T04:38:39.101Z,95656.72
2023-03-26T04:41:08.240Z,95658.09
2023-03-26T04:43:36.556Z,95652.56
2023-03-26T04:46:05.031Z,95655.28
2023-03-26T04:48:33.668Z,95649.91
2023-03-26T04:51:02.122Z,95643.75
2023-03-26T04:53:30.520Z,95645.63
2023-03-26T04:56:02.560Z,95637.31
2023-03-26T04:58:33.068Z,95637.53
2023-03-26T05:01:09.905Z,95639.56
2023-03-26T05:03:41.446Z,95633.72
2023-03-26T05:06:12.283Z,95625.59
2023-03-26T05:08:41.825Z,95626.44
2023-03-26T05:11:12.437Z,95622.22
2023-03-26T05:13:42.853Z,95616.72
2023-03-26T05:16:11.571Z,95604.28
2023-03-26T05:18:40.070Z,95611.25
2023-03-26T05:21:08.360Z,95604.16
2023-03-26T05:23:36.640Z,95607.03
2023-03-26T05:26:05.107Z,95604.38
2023-03-26T05:28:34.863Z,95598.84
2023-03-26T05:31:03.697Z,95600.69
2023-03-26T05:33:32.162Z,95596.19
2023-03-26T05:36:01.392Z,95595.22
2023-03-26T05:38:30.058Z,95584.75
2023-03-26T05:41:02.037Z,95588.25
2023-03-26T05:43:30.704Z,95582.50
2023-03-26T05:46:00.593Z,95570.63
2023-03-26T05:48:29.132Z,95568.16
2023-03-26T05:50:58.631Z,95564.81
2023-03-26T05:53:28.091Z,95561.16
2023-03-26T05:55:57.958Z,95552.94
2023-03-26T05:58:26.986Z,95551.75
2023-03-26T06:01:00.336Z,95547.25
2023-03-26T06:03:28.767Z,95554.63
2023-03-26T06:05:57.425Z,95545.78
2023-03-26T06:08:25.823Z,95547.50
2023-03-26T06:10:59.809Z,95543.16
2023-03-26T06:13:28.581Z,95539.94
2023-03-26T06:15:57.982Z,95539.50
2023-03-26T06:18:27.784Z,95533.81
2023-03-26T06:20:56.457Z,95531.97
2023-03-26T06:23:24.970Z,95521.97
2023-03-26T06:25:53.625Z,95523.22
2023-03-26T06:28:22.010Z,95517.06
2023-03-26T06:30:50.692Z,95516.66
2023-03-26T06:33:19.462Z,95509.69
2023-03-26T06:35:49.962Z,95509.50
2023-03-26T06:38:18.349Z,95497.63
2023-03-26T06:40:46.674Z,95503.75
2023-03-26T06:43:15.047Z,95501.72
2023-03-26T06:45:43.370Z,95505.63
2023-03-26T06:48:11.662Z,95504.94
2023-03-26T06:50:39.930Z,95495.31
2023-03-26T06:53:09.877Z,95493.00
2023-03-26T06:55:38.310Z,95483.59
2023-03-26T06:58:06.598Z,95478.16
2023-03-26T07:00:34.947Z,95485.91
2023-03-26T07:03:04.594Z,95480.94
2023-03-26T07:05:33.083Z,95473.75
2023-03-26T07:08:01.439Z,95474.22
2023-03-26T07:10:31.800Z,95465.59
2023-03-26T07:13:00.110Z,95458.16
2023-03-26T07:15:28.828Z,95456.38
2023-03-26T07:17:57.329Z,95455.69
2023-03-26T07:20:26.188Z,95449.97
2023-03-26T07:22:55.193Z,95450.13
2023-03-26T07:25:24.026Z,95448.09
2023-03-26T07:28:03.392Z,95440.00
2023-03-26T07:30:36.679Z,95440.75
2023-03-26T07:33:07.825Z,95439.66
2023-03-26T07:36:40.228Z,95424.66
2023-03-26T07:39:16.023Z,95422.97
2023-03-26T07:41:48.203Z,95413.75
2023-03-26T07:44:42.654Z,95413.28
2023-03-26T07:47:19.798Z,95407.28
2023-03-26T07:49:48.481Z,95413.06
2023-03-26T07:52:17.050Z,95410.88
2023-03-26T07:54:45.720Z,95407.00
2023-03-26T07:57:20.179Z,95404.00
2023-03-26T07:59:52.730Z,95402.47
2023-03-26T08:02:41.181Z,95396.31
2023-03-26T08:05:19.828Z,95385.63
2023-03-26T08:07:58.367Z,95377.63
2023-03-26T08:10:29.356Z,95356.34
2023-03-26T08:13:02.465Z,95346.25
2023-03-26T08:15:34.161Z,95344.38
2023-03-26T08:18:07.780Z,95335.66
2023-03-26T08:20:43.591Z,95334.91
2023-03-26T08:23:18.960Z,95342.56
2023-03-26T08:25:54.740Z,95347.03
2023-03-26T08:28:30.569Z,95346.44
2023-03-26T08:33:32.343Z,95341.53
2023-03-26T08:36:00.709Z,95321.94
2023-03-26T08:38:28.935Z,95317.31
2023-03-26T08:41:33.045Z,95312.16
2023-03-26T08:44:27.678Z,95312.44
2023-03-26T08:47:18.433Z,95306.97
2023-03-26T08:49:53.981Z,95301.22
2023-03-26T08:52:36.324Z,95297.28
2023-03-26T08:55:26.978Z,95285.44
2023-03-26T08:58:06.023Z,95281.47
2023-03-26T09:00:41.596Z,95281.00
2023-03-26T09:03:20.808Z,95281.47
2023-03-26T09:06:12.089Z,95280.09
2023-03-26T09:09:19.200Z,95286.34
2023-03-26T09:12:08.062Z,95286.97
2023-03-26T09:15:03.447Z,95294.34
2023-03-26T09:18:08.830Z,95296.78
2023-03-26T09:21:10.501Z,95287.97
2023-03-26T09:24:01.410Z,95293.13
2023-03-26T09:26:46.828Z,95294.88
2023-03-26T09:29:57.199Z,95303.59
2023-03-26T09:33:15.894Z,95296.13
2023-03-26T09:35:53.632Z,95283.59
2023-03-26T09:38:38.565Z,95278.41
2023-03-26T09:41:12.117Z,95272.38
2023-03-26T09:44:06.792Z,95265.34
2023-03-26T09:46:39.014Z,95271.25
2023-03-26T09:49:15.868Z,95276.25
2023-03-26T09:51:55.533Z,95270.31
2023-03-26T09:54:38.387Z,95263.91
2023-03-26T09:57:10.113Z,95246.50
2023-03-26T09:59:56.185Z,95259.84
2023-03-26T10:02:46.937Z,95251.09
2023-03-26T10:05:32.020Z,95244.31
2023-03-26T10:08:16.461Z,95245.53
2023-03-26T10:10:50.462Z,95248.06
2023-03-26T10:13:27.417Z,95241.38
2023-03-26T10:16:08.887Z,95250.41
2023-03-26T10:18:46.300Z,95253.63
2023-03-26T10:21:20.943Z,95248.03
2023-03-26T10:24:00.433Z,95242.53
2023-03-26T10:27:08.588Z,95218.22
2023-03-26T10:30:13.601Z,95226.63
2023-03-26T10:32:48.226Z,95223.66
2023-03-26T10:35:30.103Z,95235.78
2023-03-26T10:38:06.223Z,95230.53
2023-03-26T10:40:42.821Z,95225.94
2023-03-26T10:43:27.854Z,95213.22
2023-03-26T10:46:32.106Z,95223.66
2023-03-26T10:49:43.405Z,95212.75
2023-03-26T10:52:15.979Z,95222.19
2023-03-26T10:54:52.891Z,95240.78
2023-03-26T10:57:29.477Z,95237.06
2023-03-26T11:00:03.203Z,95236.59
2023-03-26T11:02:32.777Z,95239.50
2023-03-26T11:05:16.229Z,95240.19
2023-03-26T11:07:51.852Z,95237.72
2023-03-26T11:10:37.160Z,95213.16
2023-03-26T11:13:14.644Z,95221.41
2023-03-26T11:15:47.921Z,95217.13
2023-03-26T11:18:20.431Z,95213.81
2023-03-26T11:20:53.955Z,95198.50
2023-03-26T11:23:35.711Z,95190.22
2023-03-26T11:26:09.849Z,95189.19
2023-03-26T11:29:04.054Z,95202.72
2023-03-26T11:31:49.811Z,95183.00
2023-03-26T11:34:21.339Z,95189.97
2023-03-26T11:36:52.645Z,95183.41
2023-03-26T11:39:24.844Z,95190.72
2023-03-26T11:41:56.916Z,95180.53
2023-03-26T11:44:27.553Z,95188.88
2023-03-26T11:46:58.854Z,95191.66
2023-03-26T11:49:27.478Z,95199.44
2023-03-26T11:51:55.971Z,95203.53
2023-03-26T11:54:25.454Z,95194.75
2023-03-26T11:57:05.148Z,95188.44
2023-03-26T11:59:48.825Z,95199.06
2023-03-26T12:02:25.912Z,95176.75
2023-03-26T12:05:08.452Z,95158.06
2023-03-26T12:07:37.269Z,95159.50
2023-03-26T12:10:18.154Z,95153.72
2023-03-26T12:12:48.148Z,95142.50
2023-03-26T12:15:18.999Z,95158.72
2023-03-26T12:17:52.667Z,95136.78
2023-03-26T12:20:32.939Z,95153.16
2023-03-26T12:23:02.644Z,95155.03
2023-03-26T12:25:32.404Z,95149.41
2023-03-26T12:28:03.497Z,95138.00
2023-03-26T12:30:33.827Z,95134.69
2023-03-26T12:33:07.061Z,95138.53
2023-03-26T12:35:36.472Z,95144.00
2023-03-26T12:38:16.720Z,95138.91
2023-03-26T12:40:45.294Z,95131.91
2023-03-26T12:44:51.012Z,95133.53
2023-03-26T12:47:58.450Z,95131.53
2023-03-26T12:49:22.538Z,95131.78
2023-03-26T12:51:52.935Z,95120.53
2023-03-26T12:54:35.822Z,95109.84
2023-03-26T12:57:20.284Z,95126.44
2023-03-26T12:59:57.702Z,95123.19
2023-03-26T13:02:43.953Z,95117.59
2023-03-26T13:05:30.625Z,95126.97
2023-03-26T13:08:13.659Z,95106.09
2023-03-26T13:10:50.563Z,95102.91
2023-03-26T13:13:45.626Z,95077.91
2023-03-26T13:16:18.370Z,95064.97
2023-03-26T13:18:51.880Z,95139.22
2023-03-26T13:21:29.804Z,95146.22
2023-03-26T13:24:04.986Z,95154.28
2023-03-26T13:26:47.069Z,95169.47
2023-03-26T13:29:20.509Z,95162.72
2023-03-26T13:31:56.610Z,95152.00
2023-03-26T13:34:30.746Z,95172.53
2023-03-26T13:37:10.582Z,95148.81
2023-03-26T13:39:49.940Z,95147.28
2023-03-26T13:42:33.643Z,95135.50
2023-03-26T13:45:07.044Z,95134.63
2023-03-26T13:47:37.098Z,95121.47
2023-03-26T13:50:09.916Z,95122.88
2023-03-26T13:52:45.072Z,95115.91
2023-03-26T13:55:23.420Z,95110.34
2023-03-26T13:57:57.736Z,95104.94
2023-03-26T14:00:29.196Z,95094.03
2023-03-26T14:02:59.415Z,95106.91
2023-03-26T14:05:31.125Z,95107.97
2023-03-26T14:08:04.127Z,95123.97
2023-03-26T14:10:36.018Z,95130.81
2023-03-26T14:13:07.902Z,95133.91
2023-03-26T14:15:40.059Z,95162.38
2023-03-26T14:18:26.126Z,95144.44
2023-03-26T14:21:22.286Z,95140.78
2023-03-26T14:24:17.894Z,95129.31
2023-03-26T14:26:59.520Z,95082.09
2023-03-26T14:29:32.623Z,95075.78
2023-03-26T14:32:15.146Z,95061.22
2023-03-26T14:35:13.358Z,95048.47
2023-03-26T14:37:57.457Z,95040.78
2023-03-26T14:40:32.609Z,95045.03
2023-03-26T14:43:17.377Z,95045.88
2023-03-26T14:45:54.125Z,95050.38
2023-03-26T14:48:45.012Z,95047.63
2023-03-26T14:51:20.643Z,95039.81
2023-03-26T14:53:51.723Z,95037.97
2023-03-26T14:56:50.687Z,95033.72
2023-03-26T15:00:02.122Z,95018.16
2023-03-26T15:03:03.820Z,95022.53
2023-03-26T15:06:07.646Z,95030.81
2023-03-26T15:09:12.407Z,95033.38
2023-03-26T15:11:44.400Z,95037.28
2023-03-26T15:14:38.183Z,95034.22
2023-03-26T15:17:43.734Z,95039.63
2023-03-26T15:20:39.049Z,95033.09
2023-03-26T15:23:27.455Z,95025.94
2023-03-26T15:26:17.318Z,95027.72
2023-03-26T15:29:04.443Z,95017.03
2023-03-26T15:32:25.892Z,95011.66
2023-03-26T15:35:21.263Z,95011.31
2023-03-26T15:38:06.057Z,95004.09
2023-03-26T15:40:53.869Z,95011.50
2023-03-26T15:43:23.115Z,95014.22
2023-03-26T15:45:54.916Z,95017.91
2023-03-26T15:48:44.770Z,95019.53
2023-03-26T15:51:47.178Z,95009.31
2023-03-26T15:54:23.794Z,95011.16
2023-03-26T15:57:07.308Z,95003.56
2023-03-26T15:59:43.181Z,95005.44
2023-03-26T16:02:22.670Z,95005.25
2023-03-26T16:04:54.175Z,95003.41
2023-03-26T16:07:47.930Z,95005.03
2023-03-26T16:10:29.194Z,95008.13
2023-03-26T16:13:27.866Z,95004.63
2023-03-26T16:15:57.970Z,95000.78
2023-03-26T16:18:29.816Z,94994.63
2023-03-26T16:21:31.867Z,94997.69
2023-03-26T16:24:19.332Z,95001.38
2023-03-26T16:26:56.153Z,94995.88
2023-03-26T16:29:26.100Z,94993.41
2023-03-26T16:32:16.499Z,94987.88
2023-03-26T16:34:52.824Z,94988.94
2023-03-26T16:37:40.800Z,94987.88
2023-03-26T16:40:35.337Z,94987.78
2023-03-26T16:43:33.314Z,94983.66
2023-03-26T16:46:06.992Z,94978.97
2023-03-26T16:48:41.118Z,94969.38
2023-03-26T16:51:14.946Z,94978.78
2023-03-26T16:53:48.368Z,94970.00
2023-03-26T16:56:28.114Z,94970.78
2023-03-26T16:58:59.201Z,94968.81
2023-03-26T17:01:42.898Z,94974.97
2023-03-26T17:04:17.157Z,94971.31
2023-03-26T17:07:05.634Z,94967.25
2023-03-26T17:09:38.991Z,94962.59
2023-03-26T17:12:16.433Z,94961.22
2023-03-26T17:14:54.760Z,94975.66
2023-03-26T17:17:31.409Z,94981.69
2023-03-26T17:20:08.569Z,94983.38
2023-03-26T17:22:41.067Z,94975.81
2023-03-26T17:25:32.104Z,94967.28
2023-03-26T17:28:16.198Z,94959.09
2023-03-26T17:30:57.588Z,94956.72
2023-03-26T17:33:30.931Z,94958.94
2023-03-26T17:36:33.020Z,94955.09
2023-03-26T17:39:05.351Z,94955.09
2023-03-26T17:41:57.675Z,94956.31
2023-03-26T17:44:38.456Z,94964.06
2023-03-26T17:47:26.566Z,94968.13
2023-03-26T17:49:59.865Z,94979.78
2023-03-26T17:52:35.151Z,94991.63
2023-03-26T17:55:04.035Z,95001.03
2023-03-26T17:57:40.082Z,94996.34
2023-03-26T18:00:18.328Z,95015.63
2023-03-26T18:02:51.214Z,94971.81
2023-03-26T18:05:19.955Z,95010.03
2023-03-26T18:08:24.454Z,95028.44
2023-03-26T18:11:25.228Z,95020.84
2023-03-26T18:14:09.766Z,95019.81
2023-03-26T18:16:41.254Z,95039.00
2023-03-26T18:19:18.361Z,95054.19
2023-03-26T18:21:50.121Z,95027.19
2023-03-26T18:24:21.819Z,95057.81
2023-03-26T18:26:53.560Z,95049.69
2023-03-26T18:29:23.888Z,95061.84
2023-03-26T18:31:58.139Z,95043.72
2023-03-26T18:34:29.756Z,95048.75
2023-03-26T18:37:11.240Z,95059.38
2023-03-26T18:39:39.504Z,95071.53
2023-03-26T18:42:07.912Z,95057.09
2023-03-26T18:44:37.602Z,95053.31
2023-03-26T18:47:09.669Z,95053.44
2023-03-26T18:49:38.124Z,95056.69
2023-03-26T18:52:07.491Z,95041.53
2023-03-26T18:54:37.096Z,95059.75
2023-03-26T18:57:15.441Z,95049.59
2023-03-26T18:59:45.405Z,95054.16
2023-03-26T19:02:16.449Z,95047.34
2023-03-26T19:04:47.035Z,95049.53
2023-03-26T19:07:22.317Z,95044.91
2023-03-26T19:09:51.975Z,95046.53
2023-03-26T19:12:23.841Z,95034.03
2023-03-26T19:14:55.219Z,95045.25
2023-03-26T19:17:27.813Z,95015.09
2023-03-26T19:19:57.415Z,95048.00
2023-03-26T19:22:26.612Z,95053.22
2023-03-26T19:24:57.539Z,95047.63
2023-03-26T19:27:25.934Z,95041.78
2023-03-26T19:29:54.330Z,95047.63
2023-03-26T19:32:32.402Z,95052.66
2023-03-26T19:35:02.097Z,95031.41
2023-03-26T19:37:31.858Z,95045.88
2023-03-26T19:40:14.126Z,95047.53
2023-03-26T19:42:44.993Z,95048.09
2023-03-26T19:45:17.191Z,95041.66
2023-03-26T19:47:50.489Z,95055.28
2023-03-26T19:50:26.077Z,95057.97
2023-03-26T19:53:16.600Z,95057.13
2023-03-26T19:55:55.700Z,95057.94
2023-03-26T19:58:25.928Z,95059.47
2023-03-26T20:00:55.832Z,95059.09
2023-03-26T20:03:28.905Z,95056.09
2023-03-26T20:05:57.721Z,95039.59
2023-03-26T20:08:27.876Z,95063.47
2023-03-26T20:10:57.169Z,95074.69
2023-03-26T20:13:25.681Z,95075.25
2023-03-26T20:16:06.017Z,95074.34
2023-03-26T20:18:35.994Z,95068.84
2023-03-26T20:21:10.698Z,95069.94
2023-03-26T20:23:39.511Z,95074.06
2023-03-26T20:26:11.831Z,95060.84
2023-03-26T20:28:47.716Z,95062.41
2023-03-26T20:31:20.046Z,95057.91
2023-03-26T20:33:50.715Z,95043.06
2023-03-26T20:36:33.307Z,95054.78
2023-03-26T20:39:05.763Z,95063.63
2023-03-26T20:41:34.982Z,95052.34
2023-03-26T20:44:04.861Z,95050.16
2023-03-26T20:46:33.332Z,95056.47
2023-03-26T20:49:03.080Z,95059.56
2023-03-26T20:51:31.325Z,95060.72
2023-03-26T20:54:00.594Z,95060.19
2023-03-26T20:56:29.240Z,95059.66
2023-03-26T21:01:30.345Z,95056.88
2023-03-26T21:03:58.692Z,95072.72
2023-03-26T21:06:28.442Z,95067.72
2023-03-26T21:08:57.364Z,95060.81
2023-03-26T21:11:30.573Z,95058.09
2023-03-26T21:14:02.168Z,95063.00
2023-03-26T21:16:31.419Z,95058.44
2023-03-26T21:19:00.290Z,95066.97
2023-03-26T21:21:43.672Z,95065.44
2023-03-26T21:24:18.182Z,95064.81
2023-03-26T21:26:51.023Z,95076.53
2023-03-26T21:29:19.773Z,95074.72
2023-03-26T21:31:49.106Z,95062.69
2023-03-26T21:34:18.240Z,95071.97
2023-03-26T21:36:48.517Z,95061.66
2023-03-26T21:39:17.336Z,95067.22
2023-03-26T21:41:49.010Z,95074.66
2023-03-26T21:44:34.610Z,95068.91
2023-03-26T21:47:03.400Z,95053.44
2023-03-26T21:49:32.273Z,95068.63
2023-03-26T21:52:02.460Z,95066.22
2023-03-26T21:54:32.137Z,95067.31
2023-03-26T21:57:19.617Z,95050.91
2023-03-26T21:59:51.654Z,95059.97
2023-03-26T22:02:23.918Z,95059.59
2023-03-26T22:04:55.894Z,95053.50
2023-03-26T22:07:31.733Z,95061.69
2023-03-26T22:09:59.993Z,95057.59
2023-03-26T22:12:28.225Z,95055.44
2023-03-26T22:14:56.986Z,95052.91
2023-03-26T22:17:25.281Z,95063.28
2023-03-26T22:19:53.606Z,95056.88
2023-03-26T22:22:22.160Z,95049.47
2023-03-26T22:24:51.848Z,95046.41
2023-03-26T22:27:20.248Z,95052.31
2023-03-26T22:29:48.559Z,95060.34
2023-03-26T22:32:16.849Z,95058.53
2023-03-26T22:34:45.103Z,95054.53
2023-03-26T22:37:13.538Z,95058.72
2023-03-26T22:39:41.775Z,95062.06
2023-03-26T22:42:11.411Z,95067.72
2023-03-26T22:44:39.650Z,95054.53
2023-03-26T22:47:08.293Z,95061.59
2023-03-26T22:49:36.584Z,95062.47
2023-03-26T22:52:05.191Z,95067.34
2023-03-26T22:54:33.862Z,95066.28
2023-03-26T22:57:02.166Z,95065.00
2023-03-26T22:59:32.400Z,95051.06
2023-03-26T23:02:01.035Z,95051.34
2023-03-26T23:04:32.197Z,95061.88
2023-03-26T23:07:01.041Z,95059.06
2023-03-26T23:09:29.542Z,95049.72
2023-03-26T23:11:58.032Z,95057.72
2023-03-26T23:14:26.344Z,95058.53
2023-03-26T23:16:56.121Z,95047.78
2023-03-26T23:19:24.542Z,95048.91
2023-03-26T23:21:52.886Z,95051.06
2023-03-26T23:24:21.116Z,95035.34
2023-03-26T23:26:51.088Z,95062.34
2023-03-26T23:29:19.758Z,95041.53
2023-03-26T23:31:48.166Z,95054.44
2023-03-26T23:34:18.729Z,95060.94
2023-03-26T23:36:47.094Z,95058.41
2023-03-26T23:39:15.942Z,95051.66
2023-03-26T23:41:44.188Z,95052.13
2023-03-26T23:44:14.444Z,95045.72
2023-03-26T23:46:42.746Z,95028.78
2023-03-26T23:49:12.211Z,95047.69
2023-03-26T23:51:42.126Z,95046.19
2023-03-26T23:54:11.647Z,95048.06
2023-03-26T23:56:39.994Z,95045.34
2023-03-26T23:59:08.392Z,95039.91
